createdAt,value
2022-12-18T00:01:34.273Z,5.26
2022-12-18T00:04:04.040Z,5.26
2022-12-18T00:06:32.382Z,5.10
2022-12-18T00:09:01.628Z,5.05
2022-12-18T00:11:31.974Z,4.99
2022-12-18T00:14:02.017Z,5.03
2022-12-18T00:16:34.076Z,5.07
2022-12-18T00:19:03.156Z,5.06
2022-12-18T00:21:32.406Z,4.94
2022-12-18T00:24:01.092Z,4.88
2022-12-18T00:26:31.394Z,4.84
2022-12-18T00:29:01.203Z,4.79
2022-12-18T00:31:31.219Z,4.71
2022-12-18T00:33:59.909Z,4.71
2022-12-18T00:36:30.149Z,4.69
2022-12-18T00:38:59.463Z,4.67
2022-12-18T00:41:45.551Z,4.62
2022-12-18T00:44:15.875Z,4.73
2022-12-18T00:46:46.303Z,4.55
2022-12-18T00:49:14.241Z,4.64
2022-12-18T00:51:42.557Z,4.49
2022-12-18T00:54:10.813Z,4.48
2022-12-18T00:56:48.246Z,4.54
2022-12-18T00:59:17.433Z,4.55
2022-12-18T01:01:47.501Z,4.49
2022-12-18T01:04:16.226Z,4.43
2022-12-18T01:06:44.891Z,4.48
2022-12-18T01:09:12.968Z,4.47
2022-12-18T01:11:40.935Z,4.45
2022-12-18T01:14:08.989Z,4.39
2022-12-18T01:16:36.975Z,4.45
2022-12-18T01:19:06.311Z,4.28
2022-12-18T01:21:34.751Z,4.34
2022-12-18T01:24:02.992Z,4.36
2022-12-18T01:26:31.599Z,4.49
2022-12-18T01:29:00.472Z,4.28
2022-12-18T01:31:30.021Z,4.36
2022-12-18T01:33:58.453Z,4.41
2022-12-18T01:36:29.636Z,4.40
2022-12-18T01:38:58.702Z,4.37
2022-12-18T01:41:49.775Z,4.40
2022-12-18T01:44:50.824Z,4.35
2022-12-18T01:47:22.594Z,4.31
2022-12-18T01:49:50.619Z,4.35
2022-12-18T01:52:22.005Z,4.35
2022-12-18T01:54:52.536Z,4.17
2022-12-18T01:57:20.590Z,4.24
2022-12-18T01:59:54.557Z,4.23
2022-12-18T02:02:23.418Z,4.23
2022-12-18T02:04:51.450Z,4.29
2022-12-18T02:07:30.372Z,4.22
2022-12-18T02:10:05.806Z,4.27
2022-12-18T02:12:40.854Z,4.34
2022-12-18T02:15:17.657Z,4.29
2022-12-18T02:17:51.153Z,4.29
2022-12-18T02:20:22.056Z,4.20
2022-12-18T02:23:06.329Z,4.20
2022-12-18T02:25:48.730Z,4.09
2022-12-18T02:28:21.697Z,4.16
2022-12-18T02:30:51.457Z,4.12
2022-12-18T02:33:21.527Z,4.07
2022-12-18T02:35:51.191Z,4.04
2022-12-18T02:38:19.913Z,3.99
2022-12-18T02:40:48.552Z,4.02
2022-12-18T02:43:18.085Z,3.96
2022-12-18T02:45:50.813Z,4.07
2022-12-18T02:48:26.941Z,4.08
2022-12-18T02:51:05.536Z,4.01
2022-12-18T02:53:39.518Z,3.95
2022-12-18T02:56:13.727Z,3.99
2022-12-18T02:58:49.625Z,3.95
2022-12-18T03:01:24.100Z,3.95
2022-12-18T03:03:58.639Z,3.97
2022-12-18T03:06:31.016Z,4.01
2022-12-18T03:09:01.667Z,4.00
2022-12-18T03:11:47.313Z,3.94
2022-12-18T03:14:19.643Z,3.88
2022-12-18T03:16:50.206Z,3.80
2022-12-18T03:19:22.332Z,3.94
2022-12-18T03:21:53.837Z,3.79
2022-12-18T03:24:23.755Z,3.73
2022-12-18T03:26:56.340Z,3.61
2022-12-18T03:29:31.334Z,3.58
2022-12-18T03:32:04.643Z,3.54
2022-12-18T03:34:36.000Z,3.60
2022-12-18T03:37:04.230Z,3.50
2022-12-18T03:39:32.212Z,3.41
2022-12-18T03:42:07.468Z,3.51
2022-12-18T03:44:46.104Z,3.49
2022-12-18T03:47:18.797Z,3.36
2022-12-18T03:49:51.037Z,3.33
2022-12-18T03:52:26.536Z,3.30
2022-12-18T03:54:57.261Z,3.29
2022-12-18T03:57:30.221Z,3.23
2022-12-18T04:00:02.820Z,3.21
2022-12-18T04:02:34.057Z,3.20
2022-12-18T04:05:05.678Z,3.11
2022-12-18T04:07:34.432Z,3.20
2022-12-18T04:10:04.397Z,3.21
2022-12-18T04:12:32.704Z,3.13
2022-12-18T04:15:02.039Z,3.12
2022-12-18T04:17:29.974Z,2.78
2022-12-18T04:19:57.980Z,3.34
2022-12-18T04:22:25.898Z,3.15
2022-12-18T04:24:53.835Z,3.04
2022-12-18T04:27:21.748Z,3.19
2022-12-18T04:29:49.664Z,3.30
2022-12-18T04:32:18.968Z,3.17
2022-12-18T04:34:46.863Z,3.19
2022-12-18T04:37:14.807Z,3.34
2022-12-18T04:39:42.712Z,3.21
2022-12-18T04:42:10.628Z,3.05
2022-12-18T04:44:38.748Z,3.08
2022-12-18T04:47:06.710Z,3.01
2022-12-18T04:49:36.017Z,3.03
2022-12-18T04:52:04.051Z,3.08
2022-12-18T04:54:31.981Z,3.01
2022-12-18T04:56:59.915Z,3.05
2022-12-18T04:59:27.857Z,3.07
2022-12-18T05:01:55.909Z,3.10
2022-12-18T05:04:23.948Z,2.89
2022-12-18T05:06:53.228Z,2.96
2022-12-18T05:09:21.169Z,2.84
2022-12-18T05:11:49.127Z,2.98
2022-12-18T05:14:17.304Z,2.82
2022-12-18T05:16:45.211Z,2.87
2022-12-18T05:19:13.791Z,2.86
2022-12-18T05:21:42.236Z,2.71
2022-12-18T05:24:11.800Z,2.69
2022-12-18T05:26:39.740Z,2.67
2022-12-18T05:29:07.660Z,2.71
2022-12-18T05:31:39.669Z,2.74
2022-12-18T05:34:08.124Z,2.71
2022-12-18T05:36:36.117Z,2.64
2022-12-18T05:39:04.492Z,2.66
2022-12-18T05:41:33.924Z,2.58
2022-12-18T05:44:02.003Z,2.41
2022-12-18T05:46:30.552Z,2.45
2022-12-18T05:49:01.501Z,2.45
2022-12-18T05:51:29.845Z,2.45
2022-12-18T05:53:57.796Z,2.47
2022-12-18T05:56:25.775Z,2.56
2022-12-18T05:58:55.861Z,2.60
2022-12-18T06:01:27.503Z,2.63
2022-12-18T06:03:56.026Z,2.57
2022-12-18T06:06:26.112Z,2.43
2022-12-18T06:08:54.937Z,2.45
2022-12-18T06:11:25.191Z,2.53
2022-12-18T06:13:58.979Z,2.53
2022-12-18T06:16:27.380Z,2.52
2022-12-18T06:18:55.407Z,2.56
2022-12-18T06:21:23.328Z,2.63
2022-12-18T06:23:51.277Z,2.71
2022-12-18T06:26:23.291Z,2.73
2022-12-18T06:28:55.573Z,2.78
2022-12-18T06:31:23.564Z,2.81
2022-12-18T06:33:51.586Z,2.77
2022-12-18T06:36:20.738Z,2.66
2022-12-18T06:38:48.850Z,2.67
2022-12-18T06:41:19.126Z,2.82
2022-12-18T06:43:47.345Z,2.92
2022-12-18T06:46:16.824Z,2.94
2022-12-18T06:48:44.778Z,3.02
2022-12-18T06:51:12.908Z,3.13
2022-12-18T06:53:41.146Z,3.02
2022-12-18T06:56:10.938Z,3.17
2022-12-18T06:58:39.465Z,3.15
2022-12-18T07:01:09.720Z,3.27
2022-12-18T07:03:40.304Z,3.44
2022-12-18T07:06:14.494Z,3.53
2022-12-18T07:08:42.434Z,3.53
2022-12-18T07:11:10.355Z,3.52
2022-12-18T07:13:38.733Z,3.68
2022-12-18T07:16:16.025Z,3.75
2022-12-18T07:18:47.167Z,3.73
2022-12-18T07:21:18.722Z,3.77
2022-12-18T07:23:49.262Z,3.88
2022-12-18T07:26:19.265Z,3.89
2022-12-18T07:28:47.486Z,3.98
2022-12-18T07:31:17.685Z,4.01
2022-12-18T07:33:47.875Z,4.13
2022-12-18T07:36:16.537Z,3.97
2022-12-18T07:38:44.869Z,3.98
2022-12-18T07:41:14.467Z,3.92
2022-12-18T07:43:43.616Z,3.78
2022-12-18T07:46:14.813Z,3.78
2022-12-18T07:48:44.905Z,3.78
2022-12-18T07:51:19.997Z,3.97
2022-12-18T07:53:52.019Z,4.08
2022-12-18T07:56:29.975Z,4.20
2022-12-18T07:58:59.348Z,4.25
2022-12-18T08:01:27.522Z,4.31
2022-12-18T08:03:55.718Z,4.28
2022-12-18T08:06:25.162Z,4.48
2022-12-18T08:08:54.607Z,4.60
2022-12-18T08:11:22.788Z,4.66
2022-12-18T08:13:50.754Z,4.83
2022-12-18T08:16:19.209Z,4.89
2022-12-18T08:18:48.278Z,5.01
2022-12-18T08:21:22.018Z,5.10
2022-12-18T08:23:52.548Z,5.29
2022-12-18T08:26:21.238Z,5.34
2022-12-18T08:28:50.821Z,5.45
2022-12-18T08:31:19.658Z,5.49
2022-12-18T08:33:47.799Z,5.50
2022-12-18T08:36:15.717Z,5.54
2022-12-18T08:38:43.633Z,5.67
2022-12-18T08:41:14.946Z,5.72
2022-12-18T08:44:00.481Z,5.69
2022-12-18T08:46:29.918Z,5.74
2022-12-18T08:48:58.044Z,5.85
2022-12-18T08:51:25.980Z,5.87
2022-12-18T08:53:53.883Z,5.88
2022-12-18T08:56:23.293Z,5.75
2022-12-18T08:58:54.447Z,5.25
2022-12-18T09:01:23.499Z,4.88
2022-12-18T09:03:52.264Z,5.07
2022-12-18T09:06:21.750Z,5.27
2022-12-18T09:08:49.680Z,5.46
2022-12-18T09:11:22.818Z,5.61
2022-12-18T09:13:52.569Z,5.75
2022-12-18T09:16:23.123Z,5.63
2022-12-18T09:18:54.677Z,5.68
2022-12-18T09:21:23.172Z,5.66
2022-12-18T09:23:52.609Z,5.80
2022-12-18T09:26:20.765Z,5.83
2022-12-18T09:28:49.075Z,5.98
2022-12-18T09:31:20.885Z,6.02
2022-12-18T09:33:48.924Z,5.96
2022-12-18T09:36:19.290Z,6.01
2022-12-18T09:38:47.556Z,6.01
2022-12-18T09:41:39.825Z,6.07
2022-12-18T09:44:16.496Z,5.95
2022-12-18T09:46:51.087Z,6.07
2022-12-18T09:49:22.638Z,6.07
2022-12-18T09:51:56.753Z,6.16
2022-12-18T09:54:28.436Z,5.96
2022-12-18T09:56:57.041Z,5.71
2022-12-18T09:59:29.371Z,5.77
2022-12-18T10:01:59.703Z,5.97
2022-12-18T10:04:32.866Z,5.81
2022-12-18T10:07:10.021Z,5.73
2022-12-18T10:09:44.648Z,5.74
2022-12-18T10:12:23.455Z,5.35
2022-12-18T10:14:59.224Z,5.42
2022-12-18T10:17:35.669Z,5.64
2022-12-18T10:20:11.153Z,5.74
2022-12-18T10:22:50.311Z,5.78
2022-12-18T10:25:24.959Z,5.70
2022-12-18T10:27:56.893Z,5.49
2022-12-18T10:30:26.672Z,5.11
2022-12-18T10:32:57.252Z,4.88
2022-12-18T10:35:27.863Z,4.73
2022-12-18T10:38:06.393Z,4.80
2022-12-18T10:40:35.041Z,4.91
2022-12-18T10:43:07.692Z,5.15
2022-12-18T10:45:36.136Z,5.36
2022-12-18T10:48:06.137Z,5.15
2022-12-18T10:51:09.327Z,5.18
2022-12-18T10:53:26.439Z,5.07
2022-12-18T10:55:56.258Z,5.11
2022-12-18T10:58:27.437Z,4.96
2022-12-18T11:01:09.601Z,5.05
2022-12-18T11:03:40.167Z,5.15
2022-12-18T11:06:11.676Z,5.26
2022-12-18T11:08:40.108Z,5.46
2022-12-18T11:11:18.381Z,5.55
2022-12-18T11:14:00.485Z,5.52
2022-12-18T11:16:30.112Z,5.53
2022-12-18T11:19:25.908Z,5.58
2022-12-18T11:21:54.164Z,5.74
2022-12-18T11:24:27.464Z,5.79
2022-12-18T11:26:59.683Z,5.86
2022-12-18T11:29:34.931Z,5.95
2022-12-18T11:32:30.425Z,5.68
2022-12-18T11:35:05.324Z,5.61
2022-12-18T11:37:34.677Z,5.66
2022-12-18T11:40:09.388Z,5.37
2022-12-18T11:42:43.288Z,5.47
2022-12-18T11:45:27.862Z,5.56
2022-12-18T11:48:01.261Z,5.63
2022-12-18T11:50:35.996Z,5.72
2022-12-18T11:53:06.431Z,5.74
2022-12-18T11:55:43.141Z,5.73
2022-12-18T11:58:19.828Z,5.59
2022-12-18T12:01:01.656Z,5.81
2022-12-18T12:03:59.282Z,5.82
2022-12-18T12:06:39.692Z,5.84
2022-12-18T12:09:18.005Z,5.69
2022-12-18T12:11:58.497Z,5.36
2022-12-18T12:14:44.272Z,5.44
2022-12-18T12:17:21.798Z,5.51
2022-12-18T12:19:58.451Z,5.79
2022-12-18T12:22:39.205Z,5.95
2022-12-18T12:25:21.713Z,5.96
2022-12-18T12:28:01.994Z,6.10
2022-12-18T12:30:37.718Z,6.17
2022-12-18T12:33:18.353Z,6.27
2022-12-18T12:35:54.927Z,6.39
2022-12-18T12:38:28.514Z,6.27
2022-12-18T12:41:03.399Z,6.46
2022-12-18T12:43:42.232Z,6.44
2022-12-18T12:46:17.758Z,6.50
2022-12-18T12:48:50.464Z,6.54
2022-12-18T12:51:22.381Z,6.50
2022-12-18T12:53:52.997Z,6.55
2022-12-18T12:56:23.496Z,6.57
2022-12-18T12:59:04.179Z,6.48
2022-12-18T13:01:42.581Z,6.40
2022-12-18T13:04:21.626Z,6.42
2022-12-18T13:06:58.357Z,6.39
2022-12-18T13:09:33.360Z,6.48
2022-12-18T13:12:28.889Z,6.43
2022-12-18T13:15:15.293Z,6.49
2022-12-18T13:17:43.241Z,6.59
2022-12-18T13:20:16.670Z,6.63
2022-12-18T13:22:48.323Z,6.65
2022-12-18T13:25:36.703Z,6.55
2022-12-18T13:28:10.759Z,6.60
2022-12-18T13:30:50.869Z,6.77
2022-12-18T13:36:37.406Z,6.79
2022-12-18T13:39:15.066Z,6.84
2022-12-18T13:41:48.105Z,6.78
2022-12-18T13:44:27.516Z,6.72
2022-12-18T13:46:55.775Z,6.72
2022-12-18T13:49:26.990Z,6.69
2022-12-18T13:51:57.355Z,6.67
2022-12-18T13:54:32.449Z,6.77
2022-12-18T13:57:01.782Z,6.80
2022-12-18T13:59:36.293Z,6.76
2022-12-18T14:02:16.527Z,6.75
2022-12-18T14:04:47.791Z,6.75
2022-12-18T14:07:19.029Z,6.75
2022-12-18T14:09:52.280Z,6.80
2022-12-18T14:12:46.016Z,6.81
2022-12-18T14:15:27.388Z,6.78
2022-12-18T14:17:58.015Z,6.77
2022-12-18T14:20:27.284Z,6.78
2022-12-18T14:22:56.549Z,6.77
2022-12-18T14:25:26.953Z,6.82
2022-12-18T14:28:17.743Z,6.80
2022-12-18T14:30:47.664Z,6.81
2022-12-18T14:33:18.584Z,6.75
2022-12-18T14:35:56.262Z,6.73
2022-12-18T14:38:27.291Z,6.51
2022-12-18T14:40:56.753Z,6.48
2022-12-18T14:43:27.923Z,6.40
2022-12-18T14:45:56.466Z,6.57
2022-12-18T14:48:35.855Z,6.63
2022-12-18T14:51:05.763Z,6.61
2022-12-18T14:53:40.421Z,6.56
2022-12-18T14:56:19.225Z,6.49
2022-12-18T14:58:50.656Z,6.39
2022-12-18T15:01:28.463Z,6.47
2022-12-18T15:03:57.925Z,6.44
2022-12-18T15:06:36.681Z,6.44
2022-12-18T15:09:07.748Z,6.43
2022-12-18T15:11:45.313Z,6.48
2022-12-18T15:14:40.641Z,6.50
2022-12-18T15:17:19.095Z,6.43
2022-12-18T15:19:48.507Z,6.42
2022-12-18T15:22:26.870Z,6.29
2022-12-18T15:24:55.815Z,6.24
2022-12-18T15:27:27.066Z,6.32
2022-12-18T15:30:19.256Z,6.35
2022-12-18T15:32:47.731Z,6.28
2022-12-18T15:35:18.362Z,6.41
2022-12-18T15:37:46.682Z,6.23
2022-12-18T15:40:16.136Z,6.22
2022-12-18T15:43:03.793Z,6.05
2022-12-18T15:45:33.336Z,5.52
2022-12-18T15:48:01.919Z,5.46
2022-12-18T15:50:30.524Z,5.28
2022-12-18T15:52:58.997Z,5.63
2022-12-18T15:55:44.317Z,5.69
2022-12-18T15:58:13.080Z,5.22
2022-12-18T16:00:44.398Z,5.26
2022-12-18T16:03:14.911Z,5.14
2022-12-18T16:05:42.977Z,5.18
2022-12-18T16:08:10.895Z,5.17
2022-12-18T16:10:38.862Z,5.17
2022-12-18T16:13:06.792Z,5.18
2022-12-18T16:15:34.863Z,5.12
2022-12-18T16:18:04.214Z,4.83
2022-12-18T16:20:32.128Z,5.02
2022-12-18T16:23:00.036Z,5.07
2022-12-18T16:25:29.925Z,5.19
2022-12-18T16:27:58.964Z,5.09
2022-12-18T16:30:32.745Z,5.02
2022-12-18T16:33:07.889Z,5.02
2022-12-18T16:35:38.130Z,5.19
2022-12-18T16:38:06.160Z,4.97
2022-12-18T16:40:54.874Z,4.86
2022-12-18T16:43:22.823Z,5.05
2022-12-18T16:45:50.913Z,4.90
2022-12-18T16:48:21.236Z,4.87
2022-12-18T16:50:49.143Z,5.03
2022-12-18T16:53:17.157Z,4.67
2022-12-18T16:55:45.511Z,4.72
2022-12-18T16:58:13.420Z,4.79
2022-12-18T17:00:41.725Z,4.92
2022-12-18T17:03:09.755Z,4.87
2022-12-18T17:05:39.178Z,5.02
2022-12-18T17:08:07.473Z,5.00
2022-12-18T17:10:36.945Z,5.02
2022-12-18T17:13:04.935Z,4.93
2022-12-18T17:15:36.380Z,4.66
2022-12-18T17:18:04.506Z,4.48
2022-12-18T17:20:32.706Z,4.63
2022-12-18T17:23:02.028Z,4.31
2022-12-18T17:25:30.885Z,4.28
2022-12-18T17:27:58.857Z,4.16
2022-12-18T17:30:26.780Z,4.34
2022-12-18T17:32:54.714Z,4.45
2022-12-18T17:35:22.665Z,4.50
2022-12-18T17:37:50.575Z,4.53
2022-12-18T17:40:19.902Z,4.66
2022-12-18T17:42:47.791Z,4.30
2022-12-18T17:45:15.860Z,4.18
2022-12-18T17:47:43.846Z,4.24
2022-12-18T17:50:11.772Z,4.30
2022-12-18T17:52:39.670Z,4.19
2022-12-18T17:55:08.520Z,4.01
2022-12-18T17:57:37.891Z,3.75
2022-12-18T18:00:07.083Z,3.88
2022-12-18T18:02:35.181Z,4.08
2022-12-18T18:05:03.801Z,4.16
2022-12-18T18:07:31.774Z,4.02
2022-12-18T18:09:59.745Z,3.86
2022-12-18T18:12:44.857Z,3.77
2022-12-18T18:15:14.285Z,3.69
2022-12-18T18:17:43.073Z,3.60
2022-12-18T18:20:12.107Z,3.61
2022-12-18T18:22:40.203Z,3.56
2022-12-18T18:25:10.114Z,3.34
2022-12-18T18:27:39.005Z,3.45
2022-12-18T18:30:09.083Z,3.52
2022-12-18T18:32:40.017Z,3.19
2022-12-18T18:35:24.524Z,3.36
2022-12-18T18:37:57.956Z,3.39
2022-12-18T18:40:25.884Z,3.27
2022-12-18T18:42:56.077Z,3.42
2022-12-18T18:45:24.033Z,3.16
2022-12-18T18:47:53.433Z,3.40
2022-12-18T18:50:21.359Z,3.45
2022-12-18T18:52:49.288Z,3.37
2022-12-18T18:55:25.378Z,3.51
2022-12-18T18:57:53.854Z,3.37
2022-12-18T19:00:21.955Z,3.47
2022-12-18T19:02:50.604Z,3.46
2022-12-18T19:05:22.284Z,3.39
2022-12-18T19:07:50.210Z,3.36
2022-12-18T19:10:18.324Z,3.30
2022-12-18T19:13:03.736Z,3.27
2022-12-18T19:15:31.688Z,3.42
2022-12-18T19:17:59.592Z,3.42
2022-12-18T19:20:29.295Z,3.28
2022-12-18T19:22:57.752Z,3.36
2022-12-18T19:25:40.303Z,3.32
2022-12-18T19:28:10.029Z,3.35
2022-12-18T19:30:47.984Z,3.36
2022-12-18T19:33:44.590Z,3.51
2022-12-18T19:36:13.597Z,3.67
2022-12-18T19:38:44.125Z,3.48
2022-12-18T19:41:14.831Z,3.29
2022-12-18T19:43:43.224Z,3.24
2022-12-18T19:46:15.456Z,3.37
2022-12-18T19:48:45.078Z,3.49
2022-12-18T19:51:17.027Z,3.43
2022-12-18T19:53:45.268Z,3.43
2022-12-18T19:56:14.923Z,3.26
2022-12-18T19:58:43.507Z,3.27
2022-12-18T20:01:12.698Z,3.08
2022-12-18T20:03:41.976Z,2.95
2022-12-18T20:06:11.979Z,3.02
2022-12-18T20:08:42.051Z,3.20
2022-12-18T20:11:10.092Z,3.06
2022-12-18T20:13:38.414Z,3.03
2022-12-18T20:16:06.974Z,3.07
2022-12-18T20:18:34.946Z,3.08
2022-12-18T20:21:03.607Z,3.13
2022-12-18T20:23:32.825Z,3.21
2022-12-18T20:26:03.746Z,3.09
2022-12-18T20:28:33.757Z,3.23
2022-12-18T20:31:02.420Z,3.09
2022-12-18T20:33:30.919Z,3.07
2022-12-18T20:36:02.843Z,3.26
2022-12-18T20:38:31.289Z,3.29
2022-12-18T20:41:02.474Z,3.10
2022-12-18T20:43:32.620Z,2.93
2022-12-18T20:46:03.998Z,3.13
2022-12-18T20:48:32.712Z,3.16
2022-12-18T20:51:03.673Z,3.18
2022-12-18T20:53:32.135Z,3.21
2022-12-18T20:56:00.086Z,3.19
2022-12-18T20:58:28.064Z,3.29
2022-12-18T21:01:06.439Z,3.28
2022-12-18T21:03:34.573Z,3.37
2022-12-18T21:06:02.537Z,3.33
2022-12-18T21:08:30.746Z,3.42
2022-12-18T21:10:59.652Z,3.41
2022-12-18T21:13:26.604Z,3.43
2022-12-18T21:15:56.747Z,3.52
2022-12-18T21:18:26.113Z,3.39
2022-12-18T21:20:54.188Z,3.18
2022-12-18T21:23:22.336Z,3.24
2022-12-18T21:25:52.233Z,2.95
2022-12-18T21:28:24.113Z,3.11
2022-12-18T21:30:52.080Z,3.22
2022-12-18T21:33:20.055Z,3.18
2022-12-18T21:35:49.358Z,2.96
2022-12-18T21:38:17.280Z,3.19
2022-12-18T21:40:45.311Z,3.19
2022-12-18T21:43:30.902Z,3.12
2022-12-18T21:45:58.822Z,3.17
2022-12-18T21:48:27.706Z,3.30
2022-12-18T21:50:57.029Z,3.25
2022-12-18T21:53:24.978Z,3.17
2022-12-18T21:55:58.968Z,3.13
2022-12-18T21:58:27.227Z,3.19
2022-12-18T22:00:55.501Z,2.76
2022-12-18T22:03:23.537Z,2.92
2022-12-18T22:06:00.781Z,3.04
2022-12-18T22:08:39.099Z,3.01
2022-12-18T22:11:13.521Z,3.03
2022-12-18T22:13:41.561Z,3.09
2022-12-18T22:16:09.587Z,2.96
2022-12-18T22:18:37.561Z,2.90
2022-12-18T22:21:06.799Z,2.71
2022-12-18T22:23:34.764Z,2.81
2022-12-18T22:26:04.076Z,2.75
2022-12-18T22:28:49.484Z,2.78
2022-12-18T22:31:17.467Z,2.62
2022-12-18T22:33:45.488Z,2.66
2022-12-18T22:36:14.442Z,2.48
2022-12-18T22:38:44.081Z,2.45
2022-12-18T22:41:13.385Z,2.15
2022-12-18T22:43:41.408Z,2.12
2022-12-18T22:46:16.304Z,2.27
2022-12-18T22:48:44.573Z,2.33
2022-12-18T22:51:16.826Z,2.33
2022-12-18T22:53:45.416Z,2.20
2022-12-18T22:56:21.174Z,2.15
2022-12-18T22:58:50.131Z,2.29
2022-12-18T23:01:21.215Z,2.18
2022-12-18T23:03:49.792Z,2.19
2022-12-18T23:06:17.926Z,2.06
2022-12-18T23:08:46.292Z,1.86
2022-12-18T23:11:16.663Z,1.83
2022-12-18T23:13:46.582Z,1.88
2022-12-18T23:16:16.516Z,1.78
2022-12-18T23:18:45.080Z,1.84
2022-12-18T23:21:15.389Z,1.93
2022-12-18T23:23:43.941Z,1.97
2022-12-18T23:26:13.507Z,1.90
2022-12-18T23:28:43.465Z,1.88
2022-12-18T23:31:15.342Z,1.72
2022-12-18T23:33:44.747Z,1.88
2022-12-18T23:36:13.961Z,1.82
2022-12-18T23:38:42.021Z,1.95
2022-12-18T23:41:11.497Z,1.78
2022-12-18T23:43:39.455Z,1.77
2022-12-18T23:46:13.674Z,1.88
2022-12-18T23:48:41.478Z,1.91
2022-12-18T23:51:10.538Z,2.06
2022-12-18T23:53:38.785Z,2.12
2022-12-18T23:56:07.220Z,2.14
2022-12-18T23:58:35.661Z,1.89
